Time;durP1;ratioP1;P1;durP2;ratioP2;P2;SDS_P1;SDS_P2;PMS_P1;PMS_P2;Temp;Humidity;BMP_temperature;BMP_pressure;BME280_temperature;BME280_humidity;BME280_pressure;Samples;Min_cycle;Max_cycle;Signal;HPM_P1;HPM_P2
2023/10/09 02:50:29;;;;;;;25.30;14.32;;;;;;;13.54;100.00;101853.25;4971685;23;20032;-96
2023/10/09 02:53:29;;;;;;;26.52;14.35;;;;;;;13.32;100.00;101813.69;5080251;23;20055;-96
2023/10/09 03:01:45;;;;;;;25.97;14.47;;;;;;;13.48;100.00;101852.38;5391469;23;20043;-96
2023/10/09 03:04:10;;;;;;;28.90;14.33;;;;;;;13.27;100.00;101824.41;4959825;29;20271;-96
2023/10/09 03:10:09;;;;;;;28.02;14.27;;;;;;;13.35;100.00;101839.28;5087785;23;20071;-96
2023/10/09 06:13:41;;;;;;;32.20;16.00;;;;;;;13.70;100.00;101905.41;4950540;29;20111;-96
2023/10/09 06:16:42;;;;;;;26.10;15.20;;;;;;;13.46;100.00;101859.91;4958171;29;20051;-96
2023/10/09 06:19:07;;;;;;;29.13;15.50;;;;;;;13.77;100.00;101906.84;5015741;23;20042;-96
2023/10/09 06:24:33;;;;;;;32.35;16.17;;;;;;;13.80;100.00;101900.13;4937449;29;20084;-96
2023/10/09 06:34:51;;;;;;;35.40;16.50;;;;;;;13.65;100.00;101854.19;4928572;29;20032;-96
2023/10/09 06:42:33;;;;;;;30.63;17.08;;;;;;;13.73;100.00;101861.81;4937343;29;20018;-94
2023/10/09 06:45:21;;;;;;;28.67;16.67;;;;;;;13.76;100.00;101875.59;4934908;29;20027;-96
2023/10/09 06:47:55;;;;;;;33.22;16.63;;;;;;;13.80;100.00;101867.00;4937520;29;20103;-96
2023/10/09 06:50:26;;;;;;;29.92;17.42;;;;;;;13.90;100.00;101872.47;4934678;29;20058;-96
2023/10/09 06:55:48;;;;;;;31.97;17.80;;;;;;;13.91;100.00;101861.47;4935573;29;20488;-96
2023/10/09 06:58:41;;;;;;;28.53;16.73;;;;;;;13.89;100.00;101850.13;4937433;29;20304;-96
2023/10/09 07:14:02;;;;;;;37.80;18.67;;;;;;;14.48;100.00;101839.53;4948000;29;20119;-94
2023/10/09 07:16:38;;;;;;;32.25;18.15;;;;;;;14.58;100.00;101834.22;4943293;29;20032;-96
2023/10/09 07:19:35;;;;;;;30.50;16.77;;;;;;;14.56;100.00;101820.19;4947281;29;20053;-96
2023/10/09 07:21:57;;;;;;;31.90;16.60;;;;;;;14.78;100.00;101838.94;4945228;29;20036;-96
2023/10/09 07:24:37;;;;;;;31.05;16.08;;;;;;;14.88;100.00;101850.88;4927546;29;20507;-95
2023/10/09 07:27:08;;;;;;;32.85;17.10;;;;;;;14.71;100.00;101816.78;4944294;29;20030;-96
2023/10/09 07:29:47;;;;;;;32.30;15.73;;;;;;;14.74;100.00;101837.03;4947374;29;20024;-96
2023/10/09 07:32:20;;;;;;;36.47;16.93;;;;;;;14.90;100.00;101881.91;4947808;29;20272;-96
2023/10/09 07:34:54;;;;;;;33.17;17.10;;;;;;;14.81;100.00;101892.38;4953645;29;20047;-96
2023/10/09 07:37:24;;;;;;;28.30;16.38;;;;;;;14.69;100.00;101878.28;4933951;29;20179;-96
2023/10/09 07:39:57;;;;;;;29.42;17.17;;;;;;;14.66;100.00;101890.34;4952707;29;20241;-95
2023/10/09 07:53:17;;;;;;;28.42;16.85;;;;;;;14.87;100.00;101933.69;4953553;29;20043;-96
2023/10/09 07:56:06;;;;;;;31.45;16.33;;;;;;;14.65;100.00;101888.72;4951663;29;20027;-96
2023/10/09 07:58:46;;;;;;;26.00;16.25;;;;;;;14.91;100.00;101918.63;4950296;29;20023;-96
2023/10/09 08:04:56;;;;;;;30.73;16.35;;;;;;;14.82;100.00;101888.63;4954850;29;20067;-96
2023/10/09 08:11:41;;;;;;;31.53;16.60;;;;;;;14.74;100.00;101872.09;4953806;29;20295;-95
2023/10/09 08:16:24;;;;;;;27.77;16.15;;;;;;;14.98;100.00;101910.28;4944943;29;20015;-96
2023/10/09 08:18:52;;;;;;;29.15;16.83;;;;;;;15.17;100.00;101910.66;4956328;29;20027;-96
2023/10/09 08:21:41;;;;;;;26.23;15.95;;;;;;;15.12;100.00;101887.16;4955698;29;20028;-96
2023/10/09 08:24:40;;;;;;;27.52;16.05;;;;;;;15.36;100.00;101910.19;4956807;29;20038;-96
2023/10/09 08:29:46;;;;;;;28.30;16.50;;;;;;;15.59;100.00;101884.63;4955882;29;20302;-96
2023/10/09 08:32:38;;;;;;;28.05;16.88;;;;;;;15.98;100.00;101907.72;4955747;29;20012;-96
2023/10/09 08:35:06;;;;;;;33.08;16.13;;;;;;;16.01;100.00;101891.75;4955712;29;20066;-96
2023/10/09 08:37:32;;;;;;;28.45;16.60;;;;;;;16.22;100.00;101899.88;5198495;23;20048;-96
2023/10/09 08:40:00;;;;;;;32.60;16.85;;;;;;;16.09;100.00;101859.88;4937466;29;20021;-96
2023/10/09 08:42:28;;;;;;;26.93;15.83;;;;;;;16.22;100.00;101858.53;4938837;29;20054;-96
2023/10/09 08:44:59;;;;;;;27.03;17.07;;;;;;;16.33;100.00;101862.84;4937897;29;20276;-96
2023/10/09 08:47:24;;;;;;;33.95;16.58;;;;;;;16.48;100.00;101864.72;4940161;29;20047;-95
2023/10/09 08:49:53;;;;;;;29.95;16.55;;;;;;;16.61;100.00;101864.16;4941099;29;20032;-96
2023/10/09 08:52:21;;;;;;;29.00;16.27;;;;;;;16.85;100.00;101890.66;4940665;29;20035;-96
2023/10/09 08:54:50;;;;;;;29.40;16.10;;;;;;;16.74;100.00;101860.09;4937908;29;20280;-96
2023/10/09 09:08:23;;;;;;;28.08;15.85;;;;;;;17.21;100.00;101858.06;4941320;29;20036;-96
2023/10/09 09:10:58;;;;;;;28.80;15.63;;;;;;;17.30;100.00;101881.84;4940027;29;20031;-96
2023/10/09 10:23:20;;;;;;;26.20;16.65;;;;;;;19.70;100.00;101949.00;4934662;29;20063;-95
2023/10/09 10:25:49;;;;;;;33.40;16.70;;;;;;;19.95;100.00;101976.94;4940711;29;20024;-95
2023/10/09 10:28:38;;;;;;;28.73;17.05;;;;;;;19.73;100.00;101945.66;4936154;29;20036;-96
2023/10/09 10:31:09;;;;;;;38.33;18.33;;;;;;;19.98;100.00;101987.25;4921435;29;20012;-95
2023/10/09 10:33:56;;;;;;;29.53;16.80;;;;;;;20.04;100.00;101982.53;4932770;29;20371;-96
2023/10/09 10:36:28;;;;;;;31.40;16.77;;;;;;;19.84;100.00;101957.22;4932098;29;20039;-96
2023/10/09 10:39:05;;;;;;;30.60;18.38;;;;;;;20.20;100.00;101988.56;4934239;29;20032;-95
2023/10/09 10:41:37;;;;;;;28.60;18.27;;;;;;;20.08;100.00;101951.75;4915842;29;20028;-96
2023/10/09 10:44:33;;;;;;;30.58;18.08;;;;;;;20.43;100.00;101981.41;4917858;29;20036;-95
2023/10/09 10:46:59;;;;;;;29.70;17.40;;;;;;;20.40;100.00;101960.22;4933025;29;20492;-95
2023/10/09 10:49:38;;;;;;;28.70;18.30;;;;;;;20.41;100.00;101959.94;4928972;29;20315;-96
2023/10/09 10:52:17;;;;;;;29.60;17.67;;;;;;;20.51;100.00;101952.69;4929679;29;20028;-95
2023/10/09 10:55:05;;;;;;;28.95;17.52;;;;;;;20.46;100.00;101948.16;4932032;29;20099;-95
2023/10/09 10:58:00;;;;;;;27.88;17.45;;;;;;;20.54;100.00;101960.25;4933267;29;20027;-96
2023/10/09 11:03:17;;;;;;;27.37;17.53;;;;;;;20.72;100.00;101977.69;4931607;29;20043;-96
2023/10/09 11:05:52;;;;;;;30.97;18.67;;;;;;;20.41;100.00;101946.31;4914576;29;20292;-95
2023/10/09 11:08:23;;;;;;;35.17;18.40;;;;;;;20.34;100.00;101973.09;4912709;29;20032;-95
2023/10/09 11:10:54;;;;;;;29.00;18.10;;;;;;;20.39;100.00;101981.19;4926998;29;20024;-95
2023/10/09 11:13:33;;;;;;;33.35;18.55;;;;;;;20.11;100.00;101951.13;4927361;29;20465;-95
2023/10/09 11:16:15;;;;;;;29.20;18.83;;;;;;;20.05;100.00;101949.63;4926101;29;20032;-96
2023/10/09 11:18:48;;;;;;;31.47;19.20;;;;;;;20.09;100.00;101945.19;4923307;29;20381;-95
2023/10/09 11:26:30;;;;;;;31.00;18.40;;;;;;;20.61;100.00;101968.03;4981930;23;20060;-96
2023/10/09 11:32:17;;;;;;;29.30;18.13;;;;;;;20.97;100.00;101976.44;4948208;29;20039;-95
2023/10/09 11:34:53;;;;;;;30.83;19.00;;;;;;;20.80;100.00;101938.88;4950386;29;20018;-94
2023/10/09 11:46:58;;;;;;;23.10;13.73;;;;;;;21.86;100.00;101976.31;5328981;23;20047;-95
2023/10/09 11:49:34;;;;;;;26.03;14.03;;;;;;;22.01;100.00;101982.50;4951670;29;20083;-96
2023/10/09 11:54:35;;;;;;;21.40;13.20;;;;;;;22.08;100.00;101980.19;4951373;29;20048;-95
2023/10/09 11:57:01;;;;;;;24.63;13.80;;;;;;;22.04;100.00;101977.25;4944711;29;20027;-94
2023/10/09 11:59:34;;;;;;;25.55;12.77;;;;;;;22.03;100.00;101983.03;4947045;29;20099;-94
2023/10/09 12:02:00;;;;;;;22.37;13.20;;;;;;;22.03;100.00;101963.91;4954615;29;20028;-95
2023/10/09 12:04:30;;;;;;;22.43;12.53;;;;;;;22.00;100.00;101973.50;4948976;29;20283;-95
2023/10/09 12:07:06;;;;;;;22.55;12.85;;;;;;;21.99;100.00;101965.66;4951229;29;20028;-95
2023/10/09 12:09:34;;;;;;;20.98;12.15;;;;;;;21.98;100.00;101969.47;4955394;29;20024;-95
2023/10/09 12:12:03;;;;;;;22.80;12.40;;;;;;;22.09;100.00;101984.53;4954289;29;20032;-95
2023/10/09 12:14:33;;;;;;;23.52;12.50;;;;;;;22.10;100.00;101983.38;4954888;29;20067;-95
2023/10/09 12:17:05;;;;;;;19.47;12.07;;;;;;;22.11;100.00;101965.91;4952198;29;20091;-96
2023/10/09 12:19:33;;;;;;;23.33;11.45;;;;;;;22.12;100.00;101972.97;4948665;29;20039;-95
2023/10/09 12:22:00;;;;;;;21.30;11.48;;;;;;;22.07;100.00;101964.91;4949315;29;20024;-95
2023/10/09 12:24:32;;;;;;;19.95;10.75;;;;;;;22.05;100.00;101967.16;4955051;29;20072;-95
2023/10/09 12:26:58;;;;;;;18.88;10.85;;;;;;;21.98;100.00;101961.28;4958540;29;20024;-96
2023/10/09 12:29:24;;;;;;;21.87;10.80;;;;;;;21.99;100.00;101963.75;4960537;29;20024;-96
2023/10/09 12:31:58;;;;;;;18.07;10.30;;;;;;;21.93;100.00;101954.84;4960257;29;20035;-96
2023/10/09 12:34:27;;;;;;;19.23;9.98;;;;;;;21.97;100.00;101970.59;4959090;29;20024;-96
2023/10/09 12:36:53;;;;;;;19.10;9.30;;;;;;;21.84;100.00;101962.16;4957887;29;20120;-96
2023/10/09 12:39:22;;;;;;;14.40;8.20;;;;;;;21.99;100.00;101957.47;4958920;29;20044;-96
2023/10/09 12:41:48;;;;;;;17.95;8.23;;;;;;;22.09;100.00;101957.22;4956308;29;20505;-96
2023/10/09 12:44:14;;;;;;;16.10;8.47;;;;;;;22.20;100.00;101953.13;4955740;29;20094;-96
2023/10/09 12:46:51;;;;;;;17.80;8.10;;;;;;;22.23;100.00;101932.59;4956970;29;20327;-96
2023/10/09 12:49:24;;;;;;;16.80;8.40;;;;;;;22.41;100.00;101933.53;4958333;29;20027;-95
2023/10/09 12:51:53;;;;;;;14.77;8.05;;;;;;;22.57;99.93;101933.94;4958484;29;20027;-96
2023/10/09 12:54:28;;;;;;;17.50;8.15;;;;;;;22.71;99.08;101950.25;4958492;29;20076;-96
2023/10/09 12:56:55;;;;;;;19.95;8.40;;;;;;;22.76;96.67;101941.94;4957917;29;20035;-96
2023/10/09 12:59:21;;;;;;;17.23;7.60;;;;;;;22.74;97.41;101933.25;4962282;29;20036;-96
2023/10/09 13:01:57;;;;;;;16.33;7.50;;;;;;;22.75;96.39;101929.38;4959201;29;20016;-96
2023/10/09 13:04:23;;;;;;;14.15;7.95;;;;;;;22.81;95.55;101913.66;4961347;29;20024;-96
2023/10/09 13:06:53;;;;;;;14.45;7.28;;;;;;;22.83;95.86;101920.41;4957112;29;20463;-96
2023/10/09 13:09:32;;;;;;;15.55;7.22;;;;;;;22.89;95.84;101923.00;4956937;29;20028;-95
2023/10/09 13:12:00;;;;;;;15.57;7.27;;;;;;;22.82;96.84;101912.53;4958399;29;20023;-95
2023/10/09 13:14:26;;;;;;;14.52;7.22;;;;;;;22.85;97.18;101917.38;4957561;29;20046;-96
2023/10/09 13:16:52;;;;;;;11.38;7.57;;;;;;;22.79;96.62;101916.72;4956338;29;20039;-96
2023/10/09 13:19:19;;;;;;;14.13;7.40;;;;;;;22.68;96.30;101915.38;4953781;29;20055;-96
2023/10/09 13:21:44;;;;;;;14.50;7.53;;;;;;;22.49;94.67;101907.41;4959282;29;20107;-96
2023/10/09 13:24:13;;;;;;;15.80;6.93;;;;;;;22.36;97.70;101920.00;4956531;29;20034;-96
2023/10/09 13:26:51;;;;;;;17.30;7.13;;;;;;;22.28;98.49;101920.72;4958044;29;20030;-96
2023/10/09 13:30:05;;;;;;;12.10;7.13;;;;;;;22.27;100.00;101919.16;4958978;29;20055;-96
2023/10/09 13:32:48;;;;;;;11.10;6.33;;;;;;;22.22;100.00;101925.50;4958299;29;20035;-96
2023/10/09 13:35:14;;;;;;;15.30;7.23;;;;;;;22.23;100.00;101930.69;4960219;29;20283;-96
2023/10/09 13:37:40;;;;;;;12.82;6.85;;;;;;;22.24;100.00;101926.84;4959962;29;20011;-96
2023/10/09 13:40:09;;;;;;;11.10;6.63;;;;;;;22.26;99.91;101923.00;4959390;29;20036;-96
2023/10/09 13:42:37;;;;;;;15.05;7.65;;;;;;;22.14;99.94;101916.16;4957155;29;20056;-96
2023/10/09 13:45:15;;;;;;;16.85;7.20;;;;;;;22.06;99.16;101923.16;4958346;29;20075;-96
2023/10/09 13:47:48;;;;;;;17.77;7.90;;;;;;;21.97;99.86;101929.66;4960333;29;20015;-96
2023/10/09 13:50:51;;;;;;;13.57;7.30;;;;;;;21.90;100.00;101930.09;4943494;29;20041;-96
2023/10/09 13:53:58;;;;;;;12.20;6.93;;;;;;;21.84;99.78;101937.59;4955864;29;20042;-96
2023/10/09 13:56:27;;;;;;;14.00;7.10;;;;;;;21.93;100.00;101927.56;4956183;29;20355;-96
2023/10/09 13:59:01;;;;;;;13.82;7.00;;;;;;;22.09;100.00;101927.22;4941313;29;20031;-96
2023/10/09 14:01:33;;;;;;;14.80;7.13;;;;;;;22.20;100.00;101939.47;4940905;29;20023;-96
2023/10/09 14:05:01;;;;;;;15.13;6.93;;;;;;;22.34;100.00;101941.34;4958042;29;20112;-96
2023/10/09 14:07:26;;;;;;;11.70;6.68;;;;;;;22.31;99.74;101931.03;4948775;29;20047;-96
2023/10/09 14:12:24;;;;;;;13.93;7.15;;;;;;;22.42;99.24;101937.03;4946580;29;20035;-96
2023/10/09 14:15:17;;;;;;;13.27;7.17;;;;;;;22.41;100.00;101929.97;4959228;29;20031;-95
2023/10/09 14:18:15;;;;;;;12.90;6.30;;;;;;;22.43;99.65;101942.25;4947487;29;20036;-96
2023/10/09 14:26:29;;;;;;;12.73;6.35;;;;;;;22.46;98.56;101927.94;5015261;23;20083;-96
2023/10/09 14:29:01;;;;;;;10.77;6.17;;;;;;;22.58;97.00;101934.75;4956126;29;20043;-96
2023/10/09 14:31:30;;;;;;;15.07;6.35;;;;;;;22.68;97.47;101929.03;4957367;29;20043;-96
2023/10/09 14:33:59;;;;;;;9.57;5.80;;;;;;;22.81;96.05;101921.84;4954943;29;20035;-96
2023/10/09 14:36:33;;;;;;;12.70;5.78;;;;;;;22.69;96.15;101903.31;4955316;29;20027;-96
2023/10/09 14:39:26;;;;;;;15.70;6.75;;;;;;;22.78;93.57;101915.09;4955665;29;20042;-96
2023/10/09 14:42:09;;;;;;;12.07;6.30;;;;;;;22.79;96.02;101924.91;4958264;29;20070;-95
2023/10/09 14:47:48;;;;;;;11.80;6.63;;;;;;;22.31;97.83;101923.66;4995993;23;20047;-96
2023/10/09 14:50:21;;;;;;;11.30;6.15;;;;;;;22.03;98.59;101912.06;4960365;29;20125;-96
2023/10/09 14:52:52;;;;;;;13.32;5.95;;;;;;;21.75;97.69;101891.16;4960607;29;20027;-96
2023/10/09 14:55:20;;;;;;;9.73;5.45;;;;;;;21.75;99.23;101909.44;4959838;29;20008;-96
2023/10/09 14:57:49;;;;;;;13.57;5.67;;;;;;;21.45;100.00;101879.00;4959614;29;20008;-96
2023/10/09 15:00:23;;;;;;;11.10;5.13;;;;;;;21.17;97.54;101874.41;4959211;29;20015;-96
2023/10/09 15:02:52;;;;;;;10.45;4.88;;;;;;;21.13;97.79;101886.22;4959635;29;20034;-96
2023/10/09 15:05:17;;;;;;;12.88;4.40;;;;;;;21.00;94.92;101875.00;4959684;29;20024;-96
2023/10/09 15:07:46;;;;;;;12.67;5.23;;;;;;;20.93;96.47;101881.97;4960233;29;20053;-96
2023/10/09 15:10:15;;;;;;;12.68;4.97;;;;;;;20.79;96.18;101882.78;4959511;29;20054;-96
2023/10/09 15:12:42;;;;;;;15.70;5.18;;;;;;;20.92;97.55;101913.03;4960559;29;20031;-96
2023/10/09 15:15:13;;;;;;;12.75;5.60;;;;;;;20.84;98.56;101915.38;4959249;29;20028;-96
2023/10/09 15:25:06;;;;;;;7.97;4.47;;;;;;;20.40;99.99;101879.38;4960222;28;20023;-96
2023/10/09 15:27:31;;;;;;;11.25;4.82;;;;;;;20.48;100.00;101898.84;4960406;29;20019;-94
2023/10/09 15:53:03;;;;;;;7.07;4.97;;;;;;;20.72;100.00;101895.97;4933502;29;20056;-96
2023/10/09 15:55:33;;;;;;;13.03;4.70;;;;;;;20.98;100.00;101933.63;4936854;29;20304;-96
2023/10/09 15:58:04;;;;;;;11.98;5.00;;;;;;;20.97;100.00;101932.84;4941106;29;20039;-96
2023/10/09 16:00:37;;;;;;;13.98;5.60;;;;;;;20.82;100.00;101917.59;4940891;29;20088;-95
2023/10/09 16:03:03;;;;;;;12.40;4.95;;;;;;;20.63;100.00;101903.22;4936127;29;20024;-95
2023/10/09 16:05:30;;;;;;;13.23;4.85;;;;;;;20.57;100.00;101910.66;4923038;29;20035;-96
2023/10/09 16:07:57;;;;;;;12.95;4.93;;;;;;;20.36;100.00;101897.41;4924004;29;20028;-95
2023/10/09 16:10:23;;;;;;;9.97;4.83;;;;;;;20.34;100.00;101920.59;4923170;29;20056;-95
2023/10/09 16:12:51;;;;;;;12.10;4.85;;;;;;;20.32;100.00;101937.22;4921614;29;20032;-95
2023/10/09 16:15:18;;;;;;;10.30;4.70;;;;;;;20.15;100.00;101932.31;4922078;29;20036;-95
2023/10/09 16:17:47;;;;;;;9.85;4.85;;;;;;;20.04;100.00;101937.13;4922129;29;20028;-95
2023/10/09 16:20:15;;;;;;;11.15;5.10;;;;;;;19.85;100.00;101928.91;4921870;29;20064;-95
2023/10/09 16:22:56;;;;;;;9.53;4.67;;;;;;;19.51;100.00;101909.00;4922196;29;20020;-95
